createdAt,value
2022-11-04T00:01:49.471Z,15.62
2022-11-04T00:04:18.101Z,15.61
2022-11-04T00:06:44.918Z,15.61
2022-11-04T00:09:15.113Z,15.59
2022-11-04T00:12:00.442Z,15.58
2022-11-04T00:14:29.351Z,15.58
2022-11-04T00:17:14.868Z,15.56
2022-11-04T00:20:00.240Z,15.57
2022-11-04T00:22:45.742Z,15.58
2022-11-04T00:25:31.554Z,15.55
2022-11-04T00:28:37.084Z,15.56
2022-11-04T00:31:28.267Z,15.56
2022-11-04T00:33:57.013Z,15.55
2022-11-04T00:36:24.543Z,15.55
2022-11-04T00:38:51.484Z,15.55
2022-11-04T00:41:28.144Z,15.56
2022-11-04T00:44:02.524Z,15.55
2022-11-04T00:46:30.561Z,15.54
2022-11-04T00:48:57.344Z,15.55
2022-11-04T00:51:24.077Z,15.53
2022-11-04T00:53:50.998Z,15.53
2022-11-04T00:56:17.656Z,15.53
2022-11-04T00:58:44.221Z,15.54
2022-11-04T01:01:12.482Z,15.52
2022-11-04T01:03:40.754Z,15.53
2022-11-04T01:06:07.342Z,15.52
2022-11-04T01:08:34.605Z,15.52
2022-11-04T01:11:03.131Z,15.54
2022-11-04T01:13:29.821Z,15.56
2022-11-04T01:16:01.740Z,15.55
2022-11-04T01:18:28.425Z,15.57
2022-11-04T01:20:55.046Z,15.57
2022-11-04T01:23:21.629Z,15.57
2022-11-04T01:25:50.739Z,15.55
2022-11-04T01:28:17.380Z,15.59
2022-11-04T01:30:43.982Z,15.56
2022-11-04T01:33:10.542Z,15.58
2022-11-04T01:35:37.243Z,15.59
2022-11-04T01:38:04.233Z,15.60
2022-11-04T01:40:30.851Z,15.58
2022-11-04T01:42:57.444Z,15.57
2022-11-04T01:45:24.107Z,15.57
2022-11-04T01:47:59.939Z,15.57
2022-11-04T01:50:32.382Z,15.58
2022-11-04T01:53:01.949Z,15.56
2022-11-04T01:55:43.855Z,15.56
2022-11-04T01:58:13.491Z,15.56
2022-11-04T02:00:40.884Z,15.53
2022-11-04T02:03:38.562Z,15.52
2022-11-04T02:06:06.741Z,15.50
2022-11-04T02:08:34.078Z,15.50
2022-11-04T02:11:02.770Z,15.52
2022-11-04T02:13:31.553Z,15.51
2022-11-04T02:16:32.001Z,15.53
2022-11-04T02:19:07.166Z,15.52
2022-11-04T02:21:36.548Z,15.53
2022-11-04T02:24:21.381Z,15.52
2022-11-04T02:26:59.969Z,15.51
2022-11-04T02:29:48.378Z,15.50
2022-11-04T02:32:30.705Z,15.52
2022-11-04T02:35:33.214Z,15.52
2022-11-04T02:38:08.731Z,15.51
2022-11-04T02:40:52.368Z,15.52
2022-11-04T02:43:34.122Z,15.51
2022-11-04T02:46:09.477Z,15.51
2022-11-04T02:48:49.240Z,15.51
2022-11-04T02:51:20.102Z,15.52
2022-11-04T02:54:11.053Z,15.53
2022-11-04T02:56:42.600Z,15.54
2022-11-04T02:59:16.690Z,15.54
2022-11-04T03:01:45.535Z,15.53
2022-11-04T03:04:23.181Z,15.55
2022-11-04T03:06:51.001Z,15.55
2022-11-04T03:09:18.786Z,15.57
2022-11-04T03:11:48.391Z,15.56
2022-11-04T03:14:29.648Z,15.57
2022-11-04T03:17:03.981Z,15.57
2022-11-04T03:19:45.049Z,15.57
2022-11-04T03:22:14.948Z,15.55
2022-11-04T03:24:42.688Z,15.54
2022-11-04T03:27:29.487Z,15.55
2022-11-04T03:30:08.460Z,15.52
2022-11-04T03:32:57.846Z,15.52
2022-11-04T03:35:25.000Z,15.53
2022-11-04T03:37:51.654Z,15.54
2022-11-04T03:40:20.017Z,15.51
2022-11-04T03:42:51.267Z,15.51
2022-11-04T03:45:17.915Z,15.49
2022-11-04T03:47:44.663Z,15.49
2022-11-04T03:50:20.146Z,15.49
2022-11-04T03:52:46.858Z,15.47
2022-11-04T03:55:13.463Z,15.46
2022-11-04T03:57:45.479Z,15.47
2022-11-04T04:00:14.759Z,15.47
2022-11-04T04:02:43.168Z,15.47
2022-11-04T04:05:18.909Z,15.48
2022-11-04T04:07:50.411Z,15.48
2022-11-04T04:10:40.057Z,15.47
2022-11-04T04:13:21.825Z,15.48
2022-11-04T04:16:11.181Z,15.48
2022-11-04T04:18:54.156Z,15.51
2022-11-04T04:21:29.561Z,15.50
2022-11-04T04:24:16.201Z,15.51
2022-11-04T04:27:01.828Z,15.52
2022-11-04T04:29:30.003Z,15.51
2022-11-04T04:31:57.995Z,15.51
2022-11-04T04:34:32.861Z,15.53
2022-11-04T04:37:04.158Z,15.54
2022-11-04T04:40:09.433Z,15.52
2022-11-04T04:42:55.425Z,15.53
2022-11-04T04:45:37.188Z,15.55
2022-11-04T04:48:04.194Z,15.55
2022-11-04T04:50:39.804Z,15.55
2022-11-04T04:53:06.769Z,15.56
2022-11-04T04:55:38.875Z,15.54
2022-11-04T04:58:08.709Z,15.53
2022-11-04T05:00:35.345Z,15.54
2022-11-04T05:03:01.990Z,15.53
2022-11-04T05:05:28.587Z,15.53
2022-11-04T05:07:55.215Z,15.53
2022-11-04T05:10:21.960Z,15.51
2022-11-04T05:13:06.992Z,15.50
2022-11-04T05:15:34.448Z,15.49
2022-11-04T05:18:02.263Z,15.50
2022-11-04T05:20:34.307Z,15.48
2022-11-04T05:23:01.081Z,15.46
2022-11-04T05:25:27.675Z,15.46
2022-11-04T05:27:54.268Z,15.47
2022-11-04T05:30:20.873Z,15.46
2022-11-04T05:32:47.616Z,15.45
2022-11-04T05:35:14.240Z,15.44
2022-11-04T05:37:40.830Z,15.45
2022-11-04T05:40:07.944Z,15.42
2022-11-04T05:42:36.808Z,15.44
2022-11-04T05:45:04.582Z,15.42
2022-11-04T05:47:31.272Z,15.42
2022-11-04T05:49:57.878Z,15.44
2022-11-04T05:52:24.490Z,15.43
2022-11-04T05:54:51.107Z,15.46
2022-11-04T05:57:17.687Z,15.48
2022-11-04T05:59:44.430Z,15.48
2022-11-04T06:02:11.408Z,15.49
2022-11-04T06:04:38.364Z,15.50
2022-11-04T06:07:05.050Z,15.50
2022-11-04T06:09:41.095Z,15.51
2022-11-04T06:12:15.183Z,15.52
2022-11-04T06:14:42.469Z,15.50
2022-11-04T06:17:20.465Z,15.53
2022-11-04T06:19:47.638Z,15.54
2022-11-04T06:22:15.832Z,15.54
2022-11-04T06:24:42.878Z,15.54
2022-11-04T06:27:10.345Z,15.55
2022-11-04T06:29:41.279Z,15.54
2022-11-04T06:32:13.460Z,15.55
2022-11-04T06:34:40.128Z,15.53
2022-11-04T06:37:07.165Z,15.53
2022-11-04T06:39:34.307Z,15.52
2022-11-04T06:42:02.657Z,15.53
2022-11-04T06:44:29.633Z,15.51
2022-11-04T06:46:56.335Z,15.51
2022-11-04T06:49:23.436Z,15.51
2022-11-04T06:51:50.221Z,15.50
2022-11-04T06:54:17.138Z,15.48
2022-11-04T06:56:44.244Z,15.47
2022-11-04T06:59:19.633Z,15.48
2022-11-04T07:01:47.010Z,15.45
2022-11-04T07:04:13.739Z,15.46
2022-11-04T07:06:44.129Z,15.44
2022-11-04T07:09:13.097Z,15.44
2022-11-04T07:11:40.810Z,15.44
2022-11-04T07:14:08.953Z,15.43
2022-11-04T07:16:35.852Z,15.43
2022-11-04T07:19:02.708Z,15.41
2022-11-04T07:21:29.285Z,15.39
2022-11-04T07:23:55.866Z,15.42
2022-11-04T07:26:22.501Z,15.42
2022-11-04T07:28:49.235Z,15.41
2022-11-04T07:31:17.024Z,15.45
2022-11-04T07:33:43.635Z,15.44
2022-11-04T07:36:13.497Z,15.48
2022-11-04T07:38:40.094Z,15.49
2022-11-04T07:41:07.168Z,15.50
2022-11-04T07:43:33.766Z,15.52
2022-11-04T07:46:02.312Z,15.51
2022-11-04T07:48:29.762Z,15.51
2022-11-04T07:51:00.739Z,15.50
2022-11-04T07:53:28.840Z,15.51
2022-11-04T07:55:55.481Z,15.50
2022-11-04T07:58:23.092Z,15.51
2022-11-04T08:00:49.951Z,15.51
2022-11-04T08:03:16.574Z,15.54
2022-11-04T08:05:43.229Z,15.55
2022-11-04T08:08:09.817Z,15.56
2022-11-04T08:10:36.735Z,15.54
2022-11-04T08:13:03.663Z,15.55
2022-11-04T08:15:30.316Z,15.55
2022-11-04T08:17:56.905Z,15.55
2022-11-04T08:20:24.495Z,15.55
2022-11-04T08:22:51.140Z,15.54
2022-11-04T08:25:17.860Z,15.54
2022-11-04T08:27:44.735Z,15.53
2022-11-04T08:30:11.937Z,15.54
2022-11-04T08:32:38.534Z,15.52
2022-11-04T08:35:05.536Z,15.51
2022-11-04T08:37:32.205Z,15.52
2022-11-04T08:39:58.845Z,15.53
2022-11-04T08:42:26.274Z,15.52
2022-11-04T08:44:52.847Z,15.52
2022-11-04T08:47:19.572Z,15.49
2022-11-04T08:49:46.219Z,15.51
2022-11-04T08:52:12.825Z,15.51
2022-11-04T08:54:39.475Z,15.50
2022-11-04T08:57:06.212Z,15.51
2022-11-04T08:59:32.818Z,15.50
2022-11-04T09:01:59.449Z,15.51
2022-11-04T09:04:26.200Z,15.50
2022-11-04T09:06:53.136Z,15.51
2022-11-04T09:09:20.105Z,15.51
2022-11-04T09:11:47.071Z,15.53
2022-11-04T09:14:14.538Z,15.54
2022-11-04T09:16:42.020Z,15.56
2022-11-04T09:19:08.927Z,15.55
2022-11-04T09:21:35.694Z,15.56
2022-11-04T09:24:02.388Z,15.57
2022-11-04T09:26:28.983Z,15.61
2022-11-04T09:28:56.898Z,15.60
2022-11-04T09:31:24.341Z,15.64
2022-11-04T09:33:51.037Z,15.62
2022-11-04T09:36:17.816Z,15.62
2022-11-04T09:38:45.258Z,15.62
2022-11-04T09:41:28.933Z,15.63
2022-11-04T09:44:09.109Z,15.63
2022-11-04T09:46:36.880Z,15.62
2022-11-04T09:49:07.960Z,15.63
2022-11-04T09:54:22.872Z,15.62
2022-11-04T09:56:51.412Z,15.60
2022-11-04T09:59:26.627Z,15.57
2022-11-04T10:02:22.078Z,15.55
2022-11-04T10:05:04.911Z,15.54
2022-11-04T10:07:50.313Z,15.54
2022-11-04T10:10:38.686Z,15.54
2022-11-04T10:13:20.639Z,15.53
2022-11-04T10:16:17.922Z,15.51
2022-11-04T10:19:08.740Z,15.52
2022-11-04T10:22:05.107Z,15.51
2022-11-04T10:25:00.850Z,15.51
2022-11-04T10:27:31.040Z,15.49
2022-11-04T10:30:01.050Z,15.49
2022-11-04T10:32:43.869Z,15.49
2022-11-04T10:35:16.087Z,15.49
2022-11-04T10:37:42.841Z,15.48
2022-11-04T10:40:29.797Z,15.49
2022-11-04T10:42:58.758Z,15.49
2022-11-04T10:45:34.207Z,15.48
2022-11-04T10:48:06.840Z,15.51
2022-11-04T10:50:43.081Z,15.52
2022-11-04T10:53:15.885Z,15.56
2022-11-04T10:55:57.331Z,15.57
2022-11-04T10:58:39.771Z,15.56
2022-11-04T11:01:28.358Z,15.55
2022-11-04T11:03:55.338Z,15.55
2022-11-04T11:06:28.243Z,15.58
2022-11-04T11:08:58.833Z,15.58
2022-11-04T11:11:47.214Z,15.56
2022-11-04T11:14:30.419Z,15.60
2022-11-04T11:16:59.101Z,15.59
2022-11-04T11:19:26.021Z,15.58
2022-11-04T11:21:55.799Z,15.58
2022-11-04T11:24:27.811Z,15.58
2022-11-04T11:27:00.624Z,15.59
2022-11-04T11:29:40.052Z,15.57
2022-11-04T11:32:24.244Z,15.55
2022-11-04T11:34:50.846Z,15.56
2022-11-04T11:37:22.978Z,15.57
2022-11-04T11:39:49.791Z,15.54
2022-11-04T11:42:16.694Z,15.54
2022-11-04T11:44:49.022Z,15.52
2022-11-04T11:47:27.964Z,15.51
2022-11-04T11:50:05.790Z,15.52
2022-11-04T11:52:39.868Z,15.51
2022-11-04T11:55:32.882Z,15.51
2022-11-04T12:01:25.759Z,15.50
2022-11-04T12:10:18.569Z,15.47
2022-11-04T12:13:02.418Z,15.48
2022-11-04T12:15:33.094Z,15.48
2022-11-04T12:18:08.407Z,15.50
2022-11-04T12:20:59.621Z,15.50
2022-11-04T12:24:16.834Z,15.51
2022-11-04T12:27:05.852Z,15.53
2022-11-04T12:29:50.119Z,15.52
2022-11-04T12:32:35.100Z,15.52
2022-11-04T12:35:28.101Z,15.53
2022-11-04T12:38:01.699Z,15.54
2022-11-04T12:40:32.441Z,15.56
2022-11-04T12:43:02.094Z,15.54
2022-11-04T12:45:50.350Z,15.56
2022-11-04T12:48:49.094Z,15.55
2022-11-04T12:51:27.267Z,15.55
2022-11-04T12:54:08.993Z,15.55
2022-11-04T12:56:40.811Z,15.53
2022-11-04T12:59:28.946Z,15.54
2022-11-04T13:01:59.843Z,15.54
2022-11-04T13:04:34.359Z,15.53
2022-11-04T13:07:04.076Z,15.55
2022-11-04T13:09:41.158Z,15.55
2022-11-04T13:12:11.798Z,15.54
2022-11-04T13:14:46.241Z,15.54
2022-11-04T13:17:16.212Z,15.53
2022-11-04T13:19:47.020Z,15.53
2022-11-04T13:22:20.932Z,15.52
2022-11-04T13:24:54.402Z,15.53
2022-11-04T13:27:28.018Z,15.52
2022-11-04T13:30:08.506Z,15.53
2022-11-04T13:32:49.444Z,15.52
2022-11-04T13:35:25.847Z,15.52
2022-11-04T13:37:52.626Z,15.51
2022-11-04T13:40:29.279Z,15.51
2022-11-04T13:43:38.368Z,15.50
2022-11-04T13:46:11.030Z,15.50
2022-11-04T13:48:41.947Z,15.50
2022-11-04T13:51:12.904Z,15.49
2022-11-04T13:53:44.340Z,15.51
2022-11-04T13:56:34.125Z,15.50
2022-11-04T13:59:17.026Z,15.52
2022-11-04T14:01:43.923Z,15.52
2022-11-04T14:04:13.775Z,15.52
2022-11-04T14:06:53.741Z,15.53
2022-11-04T14:09:43.356Z,15.53
2022-11-04T14:12:18.854Z,15.53
2022-11-04T14:14:54.589Z,15.52
2022-11-04T14:17:33.425Z,15.55
2022-11-04T14:20:11.856Z,15.55
2022-11-04T14:22:44.492Z,15.56
2022-11-04T14:25:27.989Z,15.55
2022-11-04T14:28:01.712Z,15.56
2022-11-04T14:30:49.594Z,15.54
2022-11-04T14:33:38.097Z,15.53
2022-11-04T14:36:28.952Z,15.53
2022-11-04T14:39:21.726Z,15.53
2022-11-04T14:42:02.578Z,15.53
2022-11-04T14:44:50.229Z,15.52
2022-11-04T14:47:25.454Z,15.52
2022-11-04T14:49:58.084Z,15.53
2022-11-04T14:52:34.587Z,15.53
2022-11-04T14:55:23.349Z,15.52
2022-11-04T14:57:52.611Z,15.53
2022-11-04T15:00:31.637Z,15.53
2022-11-04T15:03:06.444Z,15.52
2022-11-04T15:05:36.398Z,15.52
2022-11-04T15:08:30.792Z,15.52
2022-11-04T15:11:06.844Z,15.51
2022-11-04T15:13:38.594Z,15.51
2022-11-04T15:16:13.720Z,15.52
2022-11-04T15:18:40.900Z,15.49
2022-11-04T15:21:09.467Z,15.49
2022-11-04T15:23:45.349Z,15.50
2022-11-04T15:26:38.356Z,15.49
2022-11-04T15:29:10.509Z,15.49
2022-11-04T15:31:38.627Z,15.51
2022-11-04T15:34:13.187Z,15.50
2022-11-04T15:36:42.824Z,15.51
2022-11-04T15:39:36.027Z,15.50
2022-11-04T15:42:23.784Z,15.51
2022-11-04T15:44:51.973Z,15.51
2022-11-04T15:47:18.495Z,15.52
2022-11-04T15:49:49.379Z,15.52
2022-11-04T15:52:24.760Z,15.53
2022-11-04T15:54:57.850Z,15.52
2022-11-04T15:57:29.298Z,15.53
2022-11-04T15:59:59.366Z,15.51
2022-11-04T16:02:28.872Z,15.53
2022-11-04T16:05:10.757Z,15.53
2022-11-04T16:07:41.862Z,15.54
2022-11-04T16:10:30.632Z,15.52
2022-11-04T16:13:02.770Z,15.51
2022-11-04T16:15:40.284Z,15.52
2022-11-04T16:18:30.378Z,15.51
2022-11-04T16:20:57.064Z,15.50
2022-11-04T16:23:25.186Z,15.51
2022-11-04T16:26:05.868Z,15.51
2022-11-04T16:28:37.417Z,15.51
2022-11-04T16:31:09.767Z,15.51
2022-11-04T16:33:36.360Z,15.51
2022-11-04T16:36:11.803Z,15.51
2022-11-04T16:38:38.488Z,15.52
2022-11-04T16:41:05.183Z,15.51
2022-11-04T16:43:31.732Z,15.51
2022-11-04T16:45:58.277Z,15.51
2022-11-04T16:48:24.889Z,15.51
2022-11-04T16:50:51.702Z,15.51
2022-11-04T16:53:18.274Z,15.50
2022-11-04T16:55:45.335Z,15.50
2022-11-04T16:58:18.073Z,15.51
2022-11-04T17:00:44.748Z,15.50
2022-11-04T17:03:21.098Z,15.51
2022-11-04T17:05:54.116Z,15.51
2022-11-04T17:08:20.725Z,15.49
2022-11-04T17:10:47.457Z,15.50
2022-11-04T17:13:14.399Z,15.50
2022-11-04T17:15:41.577Z,15.50
2022-11-04T17:18:10.370Z,15.51
2022-11-04T17:20:37.056Z,15.51
2022-11-04T17:23:03.706Z,15.51
2022-11-04T17:25:30.350Z,15.52
2022-11-04T17:27:56.958Z,15.50
2022-11-04T17:30:23.938Z,15.51
2022-11-04T17:32:50.928Z,15.52
2022-11-04T17:35:18.259Z,15.53
2022-11-04T17:37:45.002Z,15.51
2022-11-04T17:40:15.225Z,15.53
2022-11-04T17:43:00.496Z,15.53
2022-11-04T17:45:27.260Z,15.53
2022-11-04T17:47:53.922Z,15.52
2022-11-04T17:50:20.772Z,15.52
2022-11-04T17:52:49.322Z,15.52
2022-11-04T17:55:18.783Z,15.52
2022-11-04T17:57:47.524Z,15.52
2022-11-04T18:00:14.600Z,15.51
2022-11-04T18:02:42.188Z,15.52
2022-11-04T18:05:09.674Z,15.51
2022-11-04T18:07:36.379Z,15.51
2022-11-04T18:10:03.364Z,15.50
2022-11-04T18:12:41.261Z,15.49
2022-11-04T18:15:11.325Z,15.51
2022-11-04T18:17:39.631Z,15.51
2022-11-04T18:20:13.323Z,15.50
2022-11-04T18:22:41.303Z,15.50
2022-11-04T18:25:09.138Z,15.50
2022-11-04T18:27:36.196Z,15.50
2022-11-04T18:30:02.881Z,15.51
2022-11-04T18:32:29.461Z,15.50
2022-11-04T18:34:56.334Z,15.51
2022-11-04T18:37:23.954Z,15.51
2022-11-04T18:39:50.902Z,15.50
2022-11-04T18:42:17.682Z,15.49
2022-11-04T18:44:44.252Z,15.51
2022-11-04T18:47:10.926Z,15.50
2022-11-04T18:49:37.495Z,15.51
2022-11-04T18:52:04.221Z,15.51
2022-11-04T18:54:30.922Z,15.50
2022-11-04T18:56:57.519Z,15.51
2022-11-04T18:59:24.129Z,15.51
2022-11-04T19:01:52.523Z,15.54
2022-11-04T19:04:19.358Z,15.52
2022-11-04T19:06:46.311Z,15.52
2022-11-04T19:09:46.087Z,15.53
2022-11-04T19:12:23.058Z,15.52
2022-11-04T19:14:49.682Z,15.52
2022-11-04T19:17:16.339Z,15.51
2022-11-04T19:19:42.976Z,15.52
2022-11-04T19:22:10.256Z,15.52
2022-11-04T19:24:36.827Z,15.50
2022-11-04T19:27:03.644Z,15.52
2022-11-04T19:29:30.558Z,15.52
2022-11-04T19:31:57.167Z,15.50
2022-11-04T19:34:23.777Z,15.51
2022-11-04T19:36:50.361Z,15.51
2022-11-04T19:39:16.948Z,15.51
2022-11-04T19:42:02.529Z,15.52
2022-11-04T19:44:29.181Z,15.51
2022-11-04T19:46:55.770Z,15.49
2022-11-04T19:49:22.384Z,15.48
2022-11-04T19:51:49.053Z,15.50
2022-11-04T19:54:15.645Z,15.49
2022-11-04T19:56:42.759Z,15.49
2022-11-04T19:59:11.015Z,15.49
2022-11-04T20:01:37.767Z,15.49
2022-11-04T20:04:05.038Z,15.49
2022-11-04T20:06:33.069Z,15.48
2022-11-04T20:09:05.241Z,15.48
2022-11-04T20:11:33.279Z,15.50
2022-11-04T20:14:04.934Z,15.49
2022-11-04T20:16:39.191Z,15.50
2022-11-04T20:19:05.903Z,15.49
2022-11-04T20:21:36.722Z,15.49
2022-11-04T20:24:11.361Z,15.50
2022-11-04T20:26:38.323Z,15.50
2022-11-04T20:29:05.828Z,15.49
2022-11-04T20:31:35.039Z,15.49
2022-11-04T20:34:07.905Z,15.50
2022-11-04T20:36:35.496Z,15.51
2022-11-04T20:39:04.834Z,15.50
2022-11-04T20:41:32.049Z,15.52
2022-11-04T20:43:59.378Z,15.52
2022-11-04T20:46:30.624Z,15.52
2022-11-04T20:48:58.058Z,15.51
2022-11-04T20:51:29.746Z,15.50
2022-11-04T20:54:00.333Z,15.52
2022-11-04T20:56:29.301Z,15.52
2022-11-04T20:58:59.487Z,15.52
2022-11-04T21:01:31.866Z,15.51
2022-11-04T21:04:07.363Z,15.51
2022-11-04T21:06:37.569Z,15.51
2022-11-04T21:09:05.676Z,15.51
2022-11-04T21:11:32.499Z,15.51
2022-11-04T21:13:59.521Z,15.50
2022-11-04T21:16:26.536Z,15.50
2022-11-04T21:18:53.154Z,15.50
2022-11-04T21:21:19.865Z,15.49
2022-11-04T21:23:46.904Z,15.50
2022-11-04T21:26:21.088Z,15.47
2022-11-04T21:28:49.032Z,15.48
2022-11-04T21:31:15.592Z,15.48
2022-11-04T21:33:42.185Z,15.48
2022-11-04T21:36:11.310Z,15.47
2022-11-04T21:38:37.930Z,15.48
2022-11-04T21:41:12.994Z,15.46
2022-11-04T21:43:39.656Z,15.47
2022-11-04T21:46:09.432Z,15.48
2022-11-04T21:48:36.992Z,15.48
2022-11-04T21:51:08.114Z,15.47
2022-11-04T21:53:35.087Z,15.48
2022-11-04T21:56:05.140Z,15.48
2022-11-04T21:58:32.361Z,15.47
2022-11-04T22:00:59.399Z,15.49
2022-11-04T22:03:26.979Z,15.50
2022-11-04T22:06:01.761Z,15.49
2022-11-04T22:08:28.818Z,15.50
2022-11-04T22:10:55.970Z,15.49
2022-11-04T22:13:23.225Z,15.50
2022-11-04T22:15:59.303Z,15.50
2022-11-04T22:18:32.253Z,15.49
2022-11-04T22:21:03.131Z,15.52
2022-11-04T22:23:30.055Z,15.53
2022-11-04T22:26:01.388Z,15.54
2022-11-04T22:28:28.335Z,15.52
2022-11-04T22:30:54.977Z,15.51
2022-11-04T22:33:21.726Z,15.53
2022-11-04T22:35:48.298Z,15.52
2022-11-04T22:38:15.461Z,15.51
2022-11-04T22:40:42.194Z,15.52
2022-11-04T22:43:09.082Z,15.51
2022-11-04T22:45:36.998Z,15.51
2022-11-04T22:48:03.756Z,15.49
2022-11-04T22:50:30.364Z,15.49
2022-11-04T22:52:56.920Z,15.49
2022-11-04T22:55:23.497Z,15.48
2022-11-04T22:57:50.061Z,15.48
2022-11-04T23:00:16.837Z,15.48
2022-11-04T23:02:43.553Z,15.48
2022-11-04T23:05:10.249Z,15.47
2022-11-04T23:07:36.800Z,15.47
2022-11-04T23:10:26.370Z,15.47
2022-11-04T23:13:12.087Z,15.48
2022-11-04T23:15:58.231Z,15.47
2022-11-04T23:18:43.057Z,15.47
2022-11-04T23:21:36.758Z,15.46
2022-11-04T23:24:22.099Z,15.46
2022-11-04T23:26:48.774Z,15.46
2022-11-04T23:29:34.868Z,15.47
2022-11-04T23:32:01.499Z,15.47
2022-11-04T23:34:47.179Z,15.47
2022-11-04T23:37:13.948Z,15.47
2022-11-04T23:39:48.466Z,15.48
2022-11-04T23:42:20.620Z,15.47
2022-11-04T23:45:13.800Z,15.49
2022-11-04T23:48:01.337Z,15.49
2022-11-04T23:50:49.157Z,15.48
2022-11-04T23:53:35.229Z,15.49
2022-11-04T23:56:20.514Z,15.49
2022-11-04T23:59:05.436Z,15.51
